Belleplain, New Jersey
Current Conditions -  °F | °C
As of 5:54 PM on Tuesday 27 Jan 2015 (Local Time) from KMIV Reporting Station
Clear Clear  
Wind Chill: 22°   Ceiling: Unl
Heat Index: 30°   Visibility: 10mi
Dew Point: 15°   Wind: 9mph
Humidity: 54%   Direction: 310°NW
Pressure: 29.75"   Gusts: 20mph
Location:  39.2589°N, 74.8124°W
Report Text: KMIV 272254Z AUTO 31008G17KT 10SM CLR M01/M09 A2975 RMK AO2 SLP073 T10111094
Loading
Personal Weather Stations






























Interactive Weather Map New forecast layout! Learn more

10-Day Weather Forecast

Advertisements
Track Severe Weather on mobile